Time;durP1;ratioP1;P1;durP2;ratioP2;P2;SDS_P1;SDS_P2;PMS_P1;PMS_P2;Temp;Humidity;BMP_temperature;BMP_pressure;BME280_temperature;BME280_humidity;BME280_pressure;Samples;Min_cycle;Max_cycle;Signal;HPM_P1;HPM_P2
2021/05/02 00:01:40;;;;;;;2.60;2.40;;;;;;;2.16;100.00;100201.88;5066336;28;20047;-87
2021/05/02 00:04:44;;;;;;;3.17;2.72;;;;;;;2.08;100.00;100200.41;5072082;28;20047;-85
2021/05/02 00:07:48;;;;;;;3.63;2.58;;;;;;;2.03;100.00;100187.13;5060560;28;20047;-86
2021/05/02 00:10:51;;;;;;;5.53;2.28;;;;;;;1.98;100.00;100190.31;5072224;28;20410;-85
2021/05/02 00:13:55;;;;;;;8.70;2.90;;;;;;;1.96;100.00;100198.19;5099224;28;20066;-86
2021/05/02 00:16:59;;;;;;;4.53;2.78;;;;;;;1.89;100.00;100184.50;5091826;28;20398;-86
2021/05/02 00:20:05;;;;;;;8.38;3.60;;;;;;;1.83;100.00;100197.94;5092558;28;20055;-86
2021/05/02 00:23:08;;;;;;;3.20;2.95;;;;;;;1.80;100.00;100198.72;5080151;28;20572;-86
2021/05/02 00:26:13;;;;;;;4.18;2.85;;;;;;;1.77;100.00;100198.78;5092227;28;20417;-86
2021/05/02 00:29:17;;;;;;;2.83;2.63;;;;;;;1.70;100.00;100185.13;5092868;28;20062;-86
2021/05/02 00:32:22;;;;;;;2.08;2.03;;;;;;;1.63;100.00;100199.69;5092790;28;20051;-86
2021/05/02 00:35:26;;;;;;;2.17;2.03;;;;;;;1.52;100.00;100197.03;5079067;28;20117;-85
2021/05/02 00:38:30;;;;;;;3.60;2.92;;;;;;;1.43;100.00;100199.47;5079967;28;20090;-85
2021/05/02 00:41:35;;;;;;;5.75;3.22;;;;;;;1.39;100.00;100195.97;5103219;28;20067;-86
2021/05/02 00:44:46;;;;;;;2.47;2.30;;;;;;;1.32;100.00;100198.03;5080268;28;20055;-86
2021/05/02 00:47:55;;;;;;;7.55;3.60;;;;;;;1.27;100.00;100193.75;5088227;28;20052;-83
2021/05/02 00:51:04;;;;;;;2.78;2.65;;;;;;;1.19;100.00;100194.22;5059232;28;20536;-85
2021/05/02 00:54:07;;;;;;;3.22;2.60;;;;;;;1.10;100.00;100197.41;5082296;28;20064;-85
2021/05/02 00:57:16;;;;;;;2.55;2.33;;;;;;;1.01;100.00;100196.28;5072141;28;20056;-86
2021/05/02 01:00:21;;;;;;;3.10;2.97;;;;;;;0.90;100.00;100193.63;5082163;28;20106;-85
2021/05/02 01:03:30;;;;;;;8.52;2.85;;;;;;;0.83;100.00;100193.66;5072531;28;20055;-85
2021/05/02 01:06:34;;;;;;;3.15;2.75;;;;;;;0.76;100.00;100185.47;5075984;28;20052;-84
2021/05/02 01:09:37;;;;;;;2.65;2.45;;;;;;;0.69;100.00;100183.56;5075717;28;20060;-84
2021/05/02 01:12:53;;;;;;;3.33;2.60;;;;;;;0.59;100.00;100186.38;5074650;28;20055;-84
2021/05/02 01:15:59;;;;;;;3.03;1.88;;;;;;;0.49;100.00;100179.78;5063512;28;20055;-85
2021/05/02 01:19:09;;;;;;;4.57;3.08;;;;;;;0.46;100.00;100190.75;5075300;28;20055;-85
2021/05/02 01:22:18;;;;;;;3.97;2.75;;;;;;;0.38;100.00;100189.22;5075086;28;20063;-84
2021/05/02 01:25:23;;;;;;;5.07;3.13;;;;;;;0.30;100.00;100187.72;5074689;28;20422;-86
2021/05/02 01:28:27;;;;;;;3.13;2.70;;;;;;;0.24;100.00;100184.59;5063316;28;20479;-85
2021/05/02 01:31:32;;;;;;;3.40;3.03;;;;;;;0.20;100.00;100177.56;5074626;28;20055;-85
2021/05/02 01:34:35;;;;;;;2.28;2.13;;;;;;;0.11;100.00;100185.44;5062554;28;20060;-84
2021/05/02 01:37:39;;;;;;;1.92;1.80;;;;;;;0.06;100.00;100180.38;5063069;28;20048;-85
2021/05/02 01:40:43;;;;;;;2.50;2.30;;;;;;;0.02;100.00;100193.28;5062028;28;20067;-86
2021/05/02 01:43:46;;;;;;;10.48;4.13;;;;;;;-0.04;100.00;100185.47;5074688;28;20083;-86
2021/05/02 01:46:52;;;;;;;4.63;2.92;;;;;;;-0.08;100.00;100189.41;5074750;28;20049;-86
2021/05/02 01:50:10;;;;;;;12.80;2.92;;;;;;;-0.15;100.00;100190.19;5062589;28;20049;-85
2021/05/02 01:53:14;;;;;;;5.00;2.97;;;;;;;-0.19;100.00;100194.91;5073734;28;20064;-84
2021/05/02 01:56:18;;;;;;;8.95;4.28;;;;;;;-0.25;100.00;100188.28;5072539;28;20044;-85
2021/05/02 01:59:22;;;;;;;2.10;2.05;;;;;;;-0.29;100.00;100195.72;5074280;28;20052;-85
2021/05/02 02:02:29;;;;;;;11.57;3.78;;;;;;;-0.32;100.00;100188.28;5073524;28;20532;-85
2021/05/02 02:05:36;;;;;;;2.83;2.63;;;;;;;-0.37;100.00;100199.63;5073713;28;20048;-85
2021/05/02 02:08:39;;;;;;;2.03;2.03;;;;;;;-0.43;100.00;100195.72;5061401;28;20060;-85
2021/05/02 02:11:42;;;;;;;2.55;2.45;;;;;;;-0.48;100.00;100198.88;5073921;28;20045;-86
2021/05/02 02:14:49;;;;;;;2.88;2.67;;;;;;;-0.52;100.00;100214.50;5052708;28;20051;-85
2021/05/02 02:17:58;;;;;;;2.65;2.47;;;;;;;-0.58;100.00;100196.91;5053625;28;20098;-84
2021/05/02 02:21:02;;;;;;;3.15;2.60;;;;;;;-0.62;100.00;100209.03;5053208;28;20037;-84
2021/05/02 02:24:06;;;;;;;11.50;4.22;;;;;;;-0.66;100.00;100203.56;5040187;28;20056;-80
2021/05/02 02:27:11;;;;;;;3.42;2.92;;;;;;;-0.69;100.00;100204.34;5051580;28;20045;-80
2021/05/02 02:30:18;;;;;;;7.13;3.80;;;;;;;-0.72;100.00;100213.34;5062099;28;20053;-80
2021/05/02 02:33:29;;;;;;;6.43;3.63;;;;;;;-0.78;100.00;100218.41;5051738;28;20399;-81
2021/05/02 02:36:33;;;;;;;2.60;2.50;;;;;;;-0.84;100.00;100213.72;5052541;28;20056;-83
2021/05/02 02:39:37;;;;;;;2.80;2.70;;;;;;;-0.86;100.00;100218.78;5052518;28;20067;-84
2021/05/02 02:42:45;;;;;;;6.00;4.05;;;;;;;-0.89;100.00;100206.69;5052545;28;20045;-84
2021/05/02 02:45:53;;;;;;;4.00;2.47;;;;;;;-0.89;100.00;100216.84;5052432;28;20053;-83
2021/05/02 02:48:58;;;;;;;2.10;2.00;;;;;;;-0.91;100.00;100213.72;5063017;28;20057;-83
2021/05/02 02:52:03;;;;;;;2.72;2.63;;;;;;;-0.95;100.00;100210.97;5040088;28;20037;-83
2021/05/02 02:55:10;;;;;;;4.82;3.05;;;;;;;-1.00;100.00;100210.59;5051724;28;20538;-83
2021/05/02 02:58:15;;;;;;;2.30;2.20;;;;;;;-1.04;100.00;100218.00;5051491;28;20059;-84
2021/05/02 03:01:20;;;;;;;3.40;3.00;;;;;;;-1.09;100.00;100213.72;5051775;28;20064;-84
2021/05/02 03:04:25;;;;;;;2.42;2.30;;;;;;;-1.10;100.00;100216.81;5052028;28;20052;-84
2021/05/02 03:07:31;;;;;;;4.47;4.05;;;;;;;-1.18;100.00;100209.78;5052220;28;20503;-83
2021/05/02 03:10:36;;;;;;;2.83;2.65;;;;;;;-1.24;100.00;100211.34;5062351;28;20491;-80
2021/05/02 03:13:43;;;;;;;5.55;3.85;;;;;;;-1.29;100.00;100207.03;5064853;28;20051;-80
2021/05/02 03:16:50;;;;;;;3.63;2.60;;;;;;;-1.33;100.00;100210.91;5057324;28;20049;-81
2021/05/02 03:20:02;;;;;;;5.43;3.50;;;;;;;-1.34;100.00;100212.09;5058235;28;20048;-82
2021/05/02 03:23:14;;;;;;;3.55;3.25;;;;;;;-1.35;100.00;100211.31;5070541;28;20044;-81
2021/05/02 03:26:23;;;;;;;2.63;2.53;;;;;;;-1.35;100.00;100210.53;5069292;28;20059;-80
2021/05/02 03:29:35;;;;;;;16.30;3.17;;;;;;;-1.37;100.00;100207.41;5069459;28;20063;-79
2021/05/02 03:32:46;;;;;;;3.55;2.88;;;;;;;-1.38;100.00;100208.56;5070384;28;20413;-79
2021/05/02 03:35:51;;;;;;;3.80;3.35;;;;;;;-1.41;100.00;100217.53;5070834;28;20052;-80
2021/05/02 03:38:55;;;;;;;4.10;3.03;;;;;;;-1.42;100.00;100216.75;5070474;28;20041;-84
2021/05/02 03:42:01;;;;;;;3.90;3.63;;;;;;;-1.44;100.00;100215.56;5071585;28;20060;-85
2021/05/02 03:45:05;;;;;;;7.45;3.35;;;;;;;-1.49;100.00;100221.44;5061006;28;20044;-85
2021/05/02 03:48:08;;;;;;;3.10;2.90;;;;;;;-1.50;100.00;100225.31;5062459;28;20040;-85
2021/05/02 03:51:12;;;;;;;1.65;1.65;;;;;;;-1.54;100.00;100220.59;5093805;28;20031;-84
2021/05/02 03:54:16;;;;;;;1.98;1.98;;;;;;;-1.56;100.00;100217.47;5094416;28;20052;-86
2021/05/02 03:57:20;;;;;;;3.58;3.17;;;;;;;-1.56;100.00;100222.94;5072006;28;20047;-85
2021/05/02 04:00:23;;;;;;;11.95;3.67;;;;;;;-1.59;100.00;100221.00;5072329;28;20041;-85
2021/05/02 04:03:27;;;;;;;3.63;2.92;;;;;;;-1.59;100.00;100225.66;5071654;28;20056;-84
2021/05/02 04:06:30;;;;;;;2.45;2.40;;;;;;;-1.59;100.00;100226.47;5071207;28;20044;-84
2021/05/02 04:09:34;;;;;;;20.90;2.85;;;;;;;-1.56;100.00;100228.41;5070720;28;20533;-85
2021/05/02 04:12:38;;;;;;;4.43;2.60;;;;;;;-1.54;100.00;100231.53;5071002;28;20052;-84
2021/05/02 04:15:41;;;;;;;2.45;2.33;;;;;;;-1.57;100.00;100242.44;5071619;28;20076;-84
2021/05/02 04:18:45;;;;;;;3.78;3.28;;;;;;;-1.60;100.00;100233.06;5082725;28;20040;-85
2021/05/02 04:21:48;;;;;;;5.78;2.92;;;;;;;-1.65;100.00;100241.66;5058784;28;20529;-84
2021/05/02 04:24:52;;;;;;;4.22;3.63;;;;;;;-1.68;100.00;100239.69;5059038;28;20406;-84
2021/05/02 04:27:55;;;;;;;2.58;2.38;;;;;;;-1.75;100.00;100242.38;5070205;28;20045;-83
2021/05/02 04:30:59;;;;;;;3.40;3.20;;;;;;;-1.77;100.00;100250.16;5081673;28;20064;-83
2021/05/02 04:34:04;;;;;;;3.78;3.10;;;;;;;-1.79;100.00;100247.03;5082124;28;20052;-83
2021/05/02 04:37:08;;;;;;;4.05;3.50;;;;;;;-1.82;100.00;100247.03;5071246;28;20060;-83
2021/05/02 04:40:11;;;;;;;6.15;3.20;;;;;;;-1.82;100.00;100250.50;5062342;28;20051;-83
2021/05/02 04:43:15;;;;;;;3.35;3.05;;;;;;;-1.81;100.00;100249.38;5074673;28;20502;-82
2021/05/02 04:46:18;;;;;;;2.50;2.35;;;;;;;-1.80;100.00;100256.38;5073819;28;20056;-82
2021/05/02 04:49:22;;;;;;;3.45;3.25;;;;;;;-1.78;100.00;100264.19;5073681;28;20051;-82
2021/05/02 04:52:26;;;;;;;6.28;3.72;;;;;;;-1.77;100.00;100266.53;5074705;28;20045;-82
2021/05/02 04:55:30;;;;;;;1.95;1.85;;;;;;;-1.76;100.00;100268.13;5062209;28;20040;-82
2021/05/02 04:58:33;;;;;;;2.75;2.58;;;;;;;-1.74;100.00;100268.50;5085611;28;20059;-83
2021/05/02 05:01:38;;;;;;;9.00;3.50;;;;;;;-1.74;100.00;100265.78;5074265;28;20056;-83
2021/05/02 05:04:42;;;;;;;2.95;2.85;;;;;;;-1.72;100.00;100270.84;5074634;28;20048;-84
2021/05/02 05:07:45;;;;;;;2.65;2.40;;;;;;;-1.71;100.00;100273.19;5074743;28;20049;-82
2021/05/02 05:10:49;;;;;;;2.50;2.40;;;;;;;-1.68;100.00;100280.63;5084910;28;20060;-82
2021/05/02 05:13:53;;;;;;;2.53;2.42;;;;;;;-1.65;100.00;100285.34;5085658;28;20056;-82
2021/05/02 05:16:56;;;;;;;4.10;3.10;;;;;;;-1.62;100.00;100294.69;5064078;28;20060;-84
2021/05/02 05:19:59;;;;;;;5.45;3.55;;;;;;;-1.59;100.00;100289.25;5061916;28;20048;-83
2021/05/02 05:23:03;;;;;;;6.75;3.75;;;;;;;-1.55;100.00;100295.50;5061506;28;20044;-83
2021/05/02 05:26:07;;;;;;;2.83;2.72;;;;;;;-1.52;100.00;100297.47;5061356;28;20060;-83
2021/05/02 05:29:10;;;;;;;3.65;3.45;;;;;;;-1.44;100.00;100300.22;5073354;28;20056;-82
2021/05/02 05:32:13;;;;;;;3.45;2.80;;;;;;;-1.39;100.00;100297.13;5060778;28;20063;-83
2021/05/02 05:35:17;;;;;;;7.05;3.17;;;;;;;-1.34;100.00;100294.03;5072651;28;20406;-83
2021/05/02 05:38:21;;;;;;;3.95;2.65;;;;;;;-1.27;100.00;100297.56;5073507;28;20047;-82
2021/05/02 05:41:25;;;;;;;4.78;3.28;;;;;;;-1.21;100.00;100303.47;5060871;28;20044;-81
2021/05/02 05:44:28;;;;;;;4.40;3.95;;;;;;;-1.18;100.00;100298.00;5071309;28;20053;-83
2021/05/02 05:47:32;;;;;;;5.43;3.50;;;;;;;-1.13;100.00;100292.16;5071433;28;20048;-82
2021/05/02 05:50:36;;;;;;;10.07;4.78;;;;;;;-1.05;100.00;100295.69;5072288;28;20060;-83
2021/05/02 05:53:40;;;;;;;4.70;2.92;;;;;;;-0.99;100.00;100299.59;5073176;28;20052;-84
2021/05/02 05:56:43;;;;;;;16.85;4.68;;;;;;;-0.88;100.00;100294.94;5072560;28;20049;-82
2021/05/02 05:59:46;;;;;;;9.55;6.13;;;;;;;-0.81;100.00;100301.22;5072699;28;20060;-81
2021/05/02 06:02:50;;;;;;;13.43;4.35;;;;;;;-0.73;100.00;100307.47;5072901;28;20048;-82
2021/05/02 06:05:53;;;;;;;3.17;2.97;;;;;;;-0.64;100.00;100304.34;5072536;28;20410;-82
2021/05/02 06:08:57;;;;;;;4.15;2.95;;;;;;;-0.59;100.00;100307.50;5072234;28;20053;-81
2021/05/02 06:12:00;;;;;;;2.45;2.28;;;;;;;-0.50;100.00;100304.38;5072313;28;20533;-84
2021/05/02 06:15:04;;;;;;;5.43;3.78;;;;;;;-0.38;100.00;100307.50;5052063;28;20053;-84
2021/05/02 06:18:08;;;;;;;17.90;5.78;;;;;;;-0.28;100.00;100305.97;5052104;28;20060;-83
2021/05/02 06:21:11;;;;;;;39.65;6.72;;;;;;;-0.17;100.00;100302.03;5052128;28;20045;-83
2021/05/02 06:24:14;;;;;;;10.05;5.70;;;;;;;-0.09;100.00;100309.03;5039708;28;20046;-84
2021/05/02 06:27:18;;;;;;;18.45;6.13;;;;;;;-0.02;100.00;100306.31;5051437;28;20057;-84
2021/05/02 06:30:23;;;;;;;14.68;5.80;;;;;;;0.09;100.00;100308.28;5051819;28;20049;-84
2021/05/02 06:33:26;;;;;;;4.75;4.28;;;;;;;0.22;100.00;100303.94;5069353;28;20044;-82
2021/05/02 06:36:30;;;;;;;7.97;4.97;;;;;;;0.41;100.00;100298.00;5069819;28;20546;-83
2021/05/02 06:39:34;;;;;;;4.38;3.70;;;;;;;0.53;100.00;100311.28;5070301;28;20123;-83
2021/05/02 06:42:38;;;;;;;7.88;4.45;;;;;;;0.71;100.00;100301.78;5071190;28;20052;-83
2021/05/02 06:45:41;;;;;;;7.80;4.90;;;;;;;0.85;100.00;100306.44;5068647;28;20076;-81
2021/05/02 06:48:45;;;;;;;3.65;3.35;;;;;;;0.92;100.00;100306.41;5081332;28;20051;-80
2021/05/02 06:51:49;;;;;;;7.38;4.38;;;;;;;0.97;100.00;100306.00;5091772;28;20059;-81
2021/05/02 06:54:54;;;;;;;19.40;3.75;;;;;;;1.09;100.00;100300.03;5086310;28;20517;-81
2021/05/02 06:57:59;;;;;;;2.90;2.67;;;;;;;1.19;100.00;100304.69;5088344;28;20067;-81
2021/05/02 07:01:02;;;;;;;13.73;3.60;;;;;;;1.32;100.00;100305.00;5087918;28;20517;-80
2021/05/02 07:04:06;;;;;;;6.45;3.92;;;;;;;1.47;100.00;100312.72;5089664;28;20048;-80
2021/05/02 07:07:10;;;;;;;4.18;3.30;;;;;;;1.63;100.00;100316.91;5089311;28;20074;-83
2021/05/02 07:10:14;;;;;;;8.20;4.88;;;;;;;1.76;100.00;100309.75;5081755;28;20067;-82
2021/05/02 07:13:17;;;;;;;5.53;3.72;;;;;;;1.96;100.00;100316.25;5090483;28;20062;-81
2021/05/02 07:16:22;;;;;;;3.20;3.00;;;;;;;2.16;100.00;100306.28;5091243;28;20051;-82
2021/05/02 07:19:25;;;;;;;6.20;2.88;;;;;;;2.29;100.00;100310.06;5091689;28;20039;-82
2021/05/02 07:22:32;;;;;;;6.15;4.30;;;;;;;2.45;100.00;100313.03;5088858;28;20417;-82
2021/05/02 07:25:36;;;;;;;12.70;3.08;;;;;;;2.61;100.00;100310.50;5089524;28;20058;-82
2021/05/02 07:28:40;;;;;;;21.08;4.07;;;;;;;2.87;100.00;100309.00;5089571;28;20071;-83
2021/05/02 07:31:43;;;;;;;3.90;3.05;;;;;;;3.04;100.00;100311.53;5091474;28;20048;-79
2021/05/02 07:34:47;;;;;;;7.65;3.15;;;;;;;3.22;100.00;100310.50;5091112;28;20064;-82
2021/05/02 07:37:51;;;;;;;4.15;3.78;;;;;;;3.57;100.00;100307.22;5078860;28;20051;-81
2021/05/02 07:40:56;;;;;;;7.15;4.10;;;;;;;3.64;100.00;100316.16;5092087;28;20055;-82
2021/05/02 07:44:00;;;;;;;8.10;4.22;;;;;;;3.78;100.00;100315.16;5096294;28;20055;-83
2021/05/02 07:47:03;;;;;;;5.43;4.07;;;;;;;3.94;100.00;100317.25;5091638;28;20070;-82
2021/05/02 07:50:08;;;;;;;7.80;3.30;;;;;;;4.05;100.00;100315.09;5090042;28;20537;-79
2021/05/02 07:53:12;;;;;;;3.45;3.13;;;;;;;4.18;100.00;100307.78;5085463;28;20051;-79
2021/05/02 07:56:15;;;;;;;12.38;4.03;;;;;;;4.41;100.00;100314.03;5088275;28;20059;-80
2021/05/02 07:59:19;;;;;;;4.53;2.67;;;;;;;4.72;100.00;100316.59;5088767;28;20052;-83
2021/05/02 08:02:23;;;;;;;5.45;2.78;;;;;;;4.89;100.00;100307.19;5090024;28;20059;-83
2021/05/02 08:05:28;;;;;;;3.00;2.67;;;;;;;5.03;100.00;100309.63;5091476;28;20051;-80
2021/05/02 08:08:32;;;;;;;13.38;4.00;;;;;;;5.26;100.00;100318.56;5088338;28;20055;-80
2021/05/02 08:11:36;;;;;;;4.70;3.03;;;;;;;5.54;100.00;100317.19;5101336;28;20055;-80
2021/05/02 08:14:40;;;;;;;6.20;3.05;;;;;;;5.82;100.00;100310.97;5072816;28;20352;-80
2021/05/02 08:17:44;;;;;;;3.17;2.17;;;;;;;6.02;100.00;100314.44;5069785;28;20059;-81
2021/05/02 08:20:47;;;;;;;3.17;1.90;;;;;;;6.24;100.00;100308.38;5069103;28;20433;-79
2021/05/02 08:23:51;;;;;;;11.20;2.78;;;;;;;6.42;100.00;100308.66;5069395;28;20553;-79
2021/05/02 08:26:54;;;;;;;7.50;3.35;;;;;;;6.49;100.00;100308.47;5069435;28;20040;-79
2021/05/02 08:29:57;;;;;;;1.50;1.35;;;;;;;6.68;100.00;100307.56;5069439;28;20064;-80
2021/05/02 08:33:01;;;;;;;2.05;1.95;;;;;;;6.82;100.00;100301.63;5069484;28;20094;-80
2021/05/02 08:36:05;;;;;;;2.05;1.52;;;;;;;6.93;100.00;100298.53;5069401;28;20430;-80
2021/05/02 08:39:09;;;;;;;2.83;1.83;;;;;;;7.27;100.00;100293.94;5081546;28;20537;-78
2021/05/02 08:42:12;;;;;;;4.45;1.90;;;;;;;7.63;100.00;100291.59;5089125;28;20394;-78
2021/05/02 08:45:17;;;;;;;5.70;1.55;;;;;;;7.59;100.00;100285.41;5089713;28;20055;-80
2021/05/02 08:48:21;;;;;;;4.57;2.25;;;;;;;7.78;100.00;100280.81;5089780;28;20056;-79
2021/05/02 08:51:25;;;;;;;0.85;0.80;;;;;;;7.69;100.00;100280.72;5090399;28;20059;-78
2021/05/02 08:54:29;;;;;;;1.30;0.90;;;;;;;7.93;100.00;100293.00;5090547;28;20059;-79
2021/05/02 08:57:32;;;;;;;1.40;0.98;;;;;;;8.19;100.00;100290.94;5090394;28;20051;-78
2021/05/02 09:00:36;;;;;;;0.45;0.40;;;;;;;8.56;100.00;100284.50;5090128;28;20051;-78
2021/05/02 09:03:39;;;;;;;0.88;0.88;;;;;;;8.98;100.00;100282.94;5089710;28;20055;-79
2021/05/02 09:06:43;;;;;;;1.00;1.00;;;;;;;9.41;100.00;100295.19;5089865;28;20522;-78
2021/05/02 09:09:47;;;;;;;3.60;1.02;;;;;;;9.34;100.00;100289.91;5090169;28;20067;-79
2021/05/02 09:13:01;;;;;;;1.75;1.38;;;;;;;8.85;100.00;100295.34;5083367;28;20119;-77
2021/05/02 09:16:06;;;;;;;1.85;1.10;;;;;;;8.28;100.00;100300.16;5069283;28;20130;-79
2021/05/02 09:19:10;;;;;;;0.65;0.65;;;;;;;8.36;100.00;100295.13;5069381;28;20051;-79
2021/05/02 09:22:14;;;;;;;1.83;0.93;;;;;;;8.66;100.00;100291.69;5069298;28;20410;-80
2021/05/02 09:25:17;;;;;;;1.20;1.08;;;;;;;9.14;100.00;100296.59;5070519;28;20047;-79
2021/05/02 09:28:41;;;;;;;2.25;1.13;;;;;;;9.61;100.00;100295.59;5083763;28;20048;-80
2021/05/02 09:31:44;;;;;;;1.60;0.82;;;;;;;9.83;100.00;100299.06;5078404;28;20056;-80
2021/05/02 09:34:52;;;;;;;1.35;1.13;;;;;;;9.69;100.00;100297.63;5072635;28;20055;-78
2021/05/02 09:38:16;;;;;;;2.38;0.60;;;;;;;10.21;100.00;100288.31;5073122;28;20056;-79
2021/05/02 09:41:20;;;;;;;0.70;0.70;;;;;;;10.49;100.00;100281.53;5072634;28;20059;-78
2021/05/02 09:44:40;;;;;;;0.70;0.70;;;;;;;10.66;100.00;100284.75;5083632;28;20053;-81
2021/05/02 09:47:46;;;;;;;1.02;0.75;;;;;;;10.68;100.00;100280.28;5072321;28;20052;-80
2021/05/02 09:50:50;;;;;;;0.82;0.80;;;;;;;10.70;100.00;100287.41;5072222;28;20056;-81
2021/05/02 09:54:02;;;;;;;2.38;0.90;;;;;;;10.78;100.00;100283.06;5072091;28;20048;-80
2021/05/02 09:57:07;;;;;;;0.95;0.50;;;;;;;10.96;100.00;100275.44;5071989;28;20053;-81
2021/05/02 10:00:11;;;;;;;1.23;0.60;;;;;;;10.85;100.00;100288.31;5071617;28;20052;-79
2021/05/02 10:03:19;;;;;;;0.82;0.52;;;;;;;10.76;100.00;100279.97;5072646;28;20049;-80
2021/05/02 10:06:35;;;;;;;1.92;0.90;;;;;;;10.74;100.00;100279.66;5071586;28;20502;-80
2021/05/02 10:09:39;;;;;;;1.25;0.47;;;;;;;10.76;100.00;100286.31;5072269;28;20053;-79
2021/05/02 10:12:48;;;;;;;1.38;0.80;;;;;;;10.85;100.00;100285.53;5059794;28;20048;-80
2021/05/02 10:15:52;;;;;;;0.20;0.20;;;;;;;10.68;100.00;100277.50;5071305;28;20060;-79
2021/05/02 10:18:58;;;;;;;13.95;1.60;;;;;;;10.68;100.00;100284.31;5072104;28;20056;-80
2021/05/02 10:22:03;;;;;;;0.80;0.22;;;;;;;10.70;100.00;100273.47;5072569;28;20502;-79
2021/05/02 10:25:10;;;;;;;3.30;0.40;;;;;;;10.83;100.00;100276.88;5071059;28;20055;-80
2021/05/02 10:28:19;;;;;;;0.50;0.47;;;;;;;10.93;100.00;100270.81;5071400;28;20063;-79
2021/05/02 10:31:29;;;;;;;7.70;0.70;;;;;;;11.04;100.00;100268.31;5070420;28;20437;-80
2021/05/02 10:34:35;;;;;;;4.10;0.90;;;;;;;11.17;100.00;100273.69;5071705;28;20047;-79
2021/05/02 10:37:39;;;;;;;0.57;0.47;;;;;;;11.32;100.00;100269.75;5071308;28;20048;-79
2021/05/02 10:40:44;;;;;;;6.63;0.75;;;;;;;11.45;100.00;100258.41;5071501;28;20075;-79
2021/05/02 10:43:49;;;;;;;1.35;0.50;;;;;;;11.63;100.00;100258.28;5071416;28;20056;-78
2021/05/02 10:46:53;;;;;;;0.63;0.38;;;;;;;11.74;100.00;100260.59;5070125;28;20426;-78
2021/05/02 10:49:57;;;;;;;3.75;0.93;;;;;;;11.22;100.00;100259.09;5051004;28;20064;-79
2021/05/02 10:53:05;;;;;;;0.63;0.50;;;;;;;11.46;100.00;100254.34;5051316;28;20057;-78
2021/05/02 10:56:10;;;;;;;1.92;0.70;;;;;;;11.89;100.00;100250.28;5038944;28;20041;-79
2021/05/02 10:59:15;;;;;;;0.73;0.47;;;;;;;11.77;100.00;100251.28;5051578;28;20045;-77
2021/05/02 11:02:38;;;;;;;0.77;0.70;;;;;;;11.73;100.00;100243.09;5050457;28;20063;-78
2021/05/02 11:05:47;;;;;;;0.75;0.28;;;;;;;11.68;100.00;100246.53;5051049;28;20041;-78
2021/05/02 11:08:59;;;;;;;0.38;0.38;;;;;;;11.41;100.00;100249.44;5051197;28;20502;-78
2021/05/02 11:12:27;;;;;;;0.70;0.70;;;;;;;11.69;100.00;100248.09;5050757;28;20041;-77
2021/05/02 11:15:31;;;;;;;11.13;1.25;;;;;;;12.12;100.00;100241.91;5070245;28;20548;-78
2021/05/02 11:18:51;;;;;;;0.85;0.30;;;;;;;12.37;100.00;100243.41;5071043;28;20072;-78
2021/05/02 11:21:55;;;;;;;0.70;0.43;;;;;;;12.49;100.00;100241.59;5071416;28;20071;-78
2021/05/02 11:25:00;;;;;;;0.73;0.20;;;;;;;12.48;100.00;100226.84;5070450;28;20044;-78
2021/05/02 11:28:09;;;;;;;0.40;0.32;;;;;;;12.60;100.00;100236.22;5070697;28;20402;-76
2021/05/02 11:31:13;;;;;;;4.57;0.47;;;;;;;12.62;97.12;100244.88;5070860;28;20044;-78
2021/05/02 11:34:17;;;;;;;0.57;0.32;;;;;;;12.55;91.81;100228.50;5070767;28;20062;-78
2021/05/02 11:37:42;;;;;;;0.22;0.20;;;;;;;12.60;94.59;100230.63;5069924;28;20110;-79
2021/05/02 11:40:46;;;;;;;0.65;0.50;;;;;;;12.68;94.82;100231.78;5070747;28;20111;-79
2021/05/02 11:43:50;;;;;;;4.35;0.40;;;;;;;12.88;95.94;100229.09;5070162;28;20059;-78
2021/05/02 11:46:54;;;;;;;2.10;0.93;;;;;;;13.10;96.82;100228.72;5069179;28;20418;-78
2021/05/02 11:49:58;;;;;;;0.98;0.25;;;;;;;13.07;83.44;100224.88;5070395;28;20060;-79
2021/05/02 11:53:01;;;;;;;0.60;0.47;;;;;;;13.00;87.20;100227.25;5070662;28;20127;-79
2021/05/02 11:56:25;;;;;;;1.60;0.47;;;;;;;12.78;80.69;100224.84;5070901;28;20063;-80
2021/05/02 11:59:28;;;;;;;1.67;0.20;;;;;;;12.54;84.56;100215.78;5069389;28;20525;-80
2021/05/02 12:02:31;;;;;;;0.57;0.25;;;;;;;12.70;85.18;100224.47;5070766;28;20051;-80
2021/05/02 12:05:56;;;;;;;1.95;0.45;;;;;;;12.81;79.83;100224.66;5072822;28;20055;-80
2021/05/02 12:09:10;;;;;;;1.13;0.80;;;;;;;12.96;82.37;100230.25;5070821;28;20067;-81
2021/05/02 12:12:15;;;;;;;0.70;0.50;;;;;;;13.23;80.20;100221.56;5058769;28;20075;-80
2021/05/02 12:15:18;;;;;;;0.40;0.22;;;;;;;13.12;76.40;100226.22;5070304;28;20044;-81
2021/05/02 12:19:00;;;;;;;1.50;0.50;;;;;;;12.45;76.69;100221.47;5068744;28;20081;-80
2021/05/02 12:22:06;;;;;;;1.48;0.20;;;;;;;12.74;81.64;100207.50;5069712;28;20059;-82
2021/05/02 12:25:09;;;;;;;0.70;0.40;;;;;;;13.32;83.21;100207.47;5057418;28;20103;-82
2021/05/02 12:28:13;;;;;;;0.98;0.47;;;;;;;13.82;80.74;100210.22;5069132;28;20071;-81
2021/05/02 12:31:17;;;;;;;1.60;0.20;;;;;;;13.42;76.62;100200.50;5069721;28;20064;-80
2021/05/02 12:34:25;;;;;;;0.45;0.25;;;;;;;13.14;nan;100204.91;5069275;28;20533;-81
2021/05/02 12:37:34;;;;;;;0.85;0.63;;;;;;;13.47;84.55;100202.59;5069330;28;20055;-82
2021/05/02 12:40:49;;;;;;;1.00;0.55;;;;;;;13.66;82.36;100191.94;5069299;28;20517;-81
2021/05/02 12:43:52;;;;;;;0.68;0.32;;;;;;;13.06;78.96;100194.59;5069365;28;20056;-83
2021/05/02 12:46:58;;;;;;;0.15;0.10;;;;;;;12.44;84.49;100200.34;5068026;28;20060;-83
2021/05/02 12:50:05;;;;;;;0.55;0.30;;;;;;;11.95;91.53;100196.09;5069357;28;20059;-87
2021/05/02 12:53:09;;;;;;;2.05;0.57;;;;;;;11.57;95.95;100196.03;5056690;28;20076;-84
2021/05/02 12:56:22;;;;;;;6.32;0.43;;;;;;;11.34;97.17;100194.00;5069416;28;20075;-83
2021/05/02 13:02:49;;;;;;;0.90;0.63;;;;;;;11.63;97.74;100188.53;5073106;28;20492;-82
2021/05/02 13:06:14;;;;;;;1.50;0.60;;;;;;;12.14;95.81;100189.16;5072014;28;20457;-82
2021/05/02 13:09:18;;;;;;;1.20;0.30;;;;;;;12.32;95.00;100187.44;5072321;28;20055;-79
2021/05/02 13:12:21;;;;;;;0.20;0.20;;;;;;;12.35;93.46;100186.47;5070010;28;20067;-79
2021/05/02 13:15:29;;;;;;;0.68;0.10;;;;;;;12.23;88.31;100187.53;5052728;28;20060;-79
2021/05/02 13:18:36;;;;;;;0.70;0.20;;;;;;;12.17;92.31;100184.63;5052953;28;20052;-80
2021/05/02 13:21:40;;;;;;;0.98;0.55;;;;;;;12.06;96.02;100187.19;5052796;28;20613;-80
2021/05/02 13:25:03;;;;;;;1.17;0.73;;;;;;;11.82;93.42;100190.03;5052865;28;20056;-79
2021/05/02 13:28:08;;;;;;;0.43;0.40;;;;;;;11.57;95.32;100184.88;5052949;28;20530;-79
2021/05/02 13:31:14;;;;;;;1.23;0.60;;;;;;;11.37;94.72;100193.03;5052464;28;20052;-79
2021/05/02 13:34:19;;;;;;;0.90;0.30;;;;;;;11.16;98.87;100194.06;5052572;28;20128;-79
2021/05/02 13:37:23;;;;;;;1.45;0.70;;;;;;;10.98;100.00;100199.75;5052372;28;20056;-79
2021/05/02 13:40:27;;;;;;;3.40;0.50;;;;;;;10.81;100.00;100201.31;5052080;28;20053;-79
2021/05/02 13:43:30;;;;;;;3.15;0.75;;;;;;;10.55;100.00;100210.03;5045464;28;20064;-79
2021/05/02 13:46:34;;;;;;;1.52;0.68;;;;;;;10.24;100.00;100214.25;5071056;28;20044;-79
2021/05/02 13:49:38;;;;;;;4.80;0.77;;;;;;;9.97;100.00;100212.22;5090096;28;20059;-79
2021/05/02 13:52:42;;;;;;;5.03;1.20;;;;;;;9.73;100.00;100219.59;5092052;28;20071;-79
2021/05/02 13:55:45;;;;;;;4.95;1.52;;;;;;;9.53;100.00;100233.91;5091938;28;20075;-76
2021/05/02 13:58:52;;;;;;;5.38;1.27;;;;;;;9.36;100.00;100218.72;5091964;28;20059;-78
2021/05/02 14:01:56;;;;;;;0.35;0.30;;;;;;;9.21;100.00;100228.09;5091937;28;20063;-78
2021/05/02 14:04:59;;;;;;;4.20;0.93;;;;;;;9.16;100.00;100221.91;5091600;28;20059;-78
2021/05/02 14:08:03;;;;;;;7.13;0.90;;;;;;;9.18;100.00;100219.44;5091706;28;20559;-76
2021/05/02 14:11:07;;;;;;;0.35;0.20;;;;;;;9.27;100.00;100215.16;5091246;28;20406;-80
2021/05/02 14:14:11;;;;;;;1.08;0.40;;;;;;;9.41;100.00;100214.56;5091895;28;20051;-80
2021/05/02 14:17:14;;;;;;;1.13;0.80;;;;;;;9.60;100.00;100205.03;5079388;28;20059;-80
2021/05/02 14:20:18;;;;;;;0.70;0.50;;;;;;;9.80;100.00;100213.75;5079020;28;20063;-80
2021/05/02 14:23:23;;;;;;;0.75;0.50;;;;;;;10.01;100.00;100215.59;5102274;28;20059;-78